createdAt,value
2023-02-08T00:01:22.971Z,66504.19
2023-02-08T00:03:50.760Z,66497.91
2023-02-08T00:06:18.102Z,66502.94
2023-02-08T00:08:49.646Z,66504.94
2023-02-08T00:11:16.810Z,66497.13
2023-02-08T00:13:43.917Z,66489.88
2023-02-08T00:16:18.834Z,66483.19
2023-02-08T00:18:46.145Z,66428.47
2023-02-08T00:21:16.865Z,66472.91
2023-02-08T00:23:44.830Z,66416.75
2023-02-08T00:26:12.472Z,66455.25
2023-02-08T00:28:41.153Z,66444.06
2023-02-08T00:31:08.486Z,66444.41
2023-02-08T00:33:35.705Z,66404.03
2023-02-08T00:36:10.679Z,66451.34
2023-02-08T00:38:37.800Z,66451.34
2023-02-08T00:41:05.732Z,66445.41
2023-02-08T00:43:32.905Z,66399.47
2023-02-08T00:46:00.986Z,66446.63
2023-02-08T00:48:28.551Z,66442.97
2023-02-08T00:51:15.901Z,66396.69
2023-02-08T00:53:44.076Z,66447.22
2023-02-08T00:56:12.926Z,66447.22
2023-02-08T00:58:49.087Z,66443.19
2023-02-08T01:01:17.678Z,66443.84
2023-02-08T01:03:44.776Z,66437.94
2023-02-08T01:06:17.781Z,66437.16
2023-02-08T01:08:45.558Z,66431.00
2023-02-08T01:11:18.626Z,66425.44
2023-02-08T01:13:45.843Z,66416.16
2023-02-08T01:16:22.921Z,66413.38
2023-02-08T01:18:52.211Z,66409.47
2023-02-08T01:21:25.764Z,66404.44
2023-02-08T01:23:53.607Z,66358.19
2023-02-08T01:26:22.725Z,66407.44
2023-02-08T01:29:00.072Z,66417.59
2023-02-08T01:31:36.322Z,66419.84
2023-02-08T01:34:08.722Z,66418.94
2023-02-08T01:36:37.430Z,66417.84
2023-02-08T01:39:06.649Z,66420.06
2023-02-08T01:41:37.549Z,66426.56
2023-02-08T01:44:15.167Z,66378.81
2023-02-08T01:46:48.700Z,66388.88
2023-02-08T01:49:42.649Z,66426.41
2023-02-08T01:52:17.035Z,66426.41
2023-02-08T01:54:58.008Z,66424.31
2023-02-08T01:57:31.664Z,66423.97
2023-02-08T02:00:16.285Z,66425.66
2023-02-08T02:02:47.798Z,66424.88
2023-02-08T02:05:17.337Z,66432.34
2023-02-08T02:07:44.831Z,66381.59
2023-02-08T02:10:32.827Z,66421.97
2023-02-08T02:13:22.626Z,66433.81
2023-02-08T02:15:50.543Z,66416.38
2023-02-08T02:18:28.940Z,66406.88
2023-02-08T02:21:08.236Z,66358.75
2023-02-08T02:24:21.245Z,66360.19
2023-02-08T02:27:16.042Z,66348.13
2023-02-08T02:29:52.415Z,66392.16
2023-02-08T02:32:41.467Z,66390.81
2023-02-08T02:35:19.040Z,66385.78
2023-02-08T02:37:49.632Z,66374.31
2023-02-08T02:40:31.192Z,66369.81
2023-02-08T02:43:47.767Z,66318.56
2023-02-08T02:46:43.148Z,66359.78
2023-02-08T02:49:19.048Z,66359.56
2023-02-08T02:51:49.661Z,66307.97
2023-02-08T02:54:23.398Z,66352.88
2023-02-08T02:57:02.525Z,66301.28
2023-02-08T02:59:36.105Z,66343.28
2023-02-08T03:02:04.480Z,66299.19
2023-02-08T03:04:34.620Z,66335.81
2023-02-08T03:07:46.450Z,66334.44
2023-02-08T03:10:19.642Z,66332.78
2023-02-08T03:13:24.594Z,66329.44
2023-02-08T03:16:07.029Z,66329.66
2023-02-08T03:19:21.090Z,66332.78
2023-02-08T03:22:15.716Z,66327.97
2023-02-08T03:24:51.994Z,66285.66
2023-02-08T03:27:23.434Z,66329.44
2023-02-08T03:30:07.263Z,66282.69
2023-02-08T03:32:46.282Z,66327.75
2023-02-08T03:35:22.862Z,66324.66
2023-02-08T03:38:04.040Z,66276.19
2023-02-08T03:40:59.261Z,66270.63
2023-02-08T03:43:52.345Z,66316.84
2023-02-08T03:46:30.949Z,66266.72
2023-02-08T03:49:07.740Z,66314.59
2023-02-08T03:51:42.692Z,66313.81
2023-02-08T03:54:17.634Z,66314.38
2023-02-08T03:56:50.077Z,66317.16
2023-02-08T03:59:38.985Z,66315.16
2023-02-08T04:02:10.746Z,66267.28
2023-02-08T04:04:42.176Z,66315.16
2023-02-08T04:07:09.693Z,66266.16
2023-02-08T04:09:38.749Z,66265.06
2023-02-08T04:12:06.708Z,66312.38
2023-02-08T04:14:33.904Z,66265.06
2023-02-08T04:17:11.747Z,66314.94
2023-02-08T04:19:38.904Z,66265.63
2023-02-08T04:22:06.564Z,66317.38
2023-02-08T04:24:33.777Z,66275.44
2023-02-08T04:27:06.043Z,66319.28
2023-02-08T04:29:33.442Z,66281.22
2023-02-08T04:32:00.706Z,66280.66
2023-02-08T04:34:27.989Z,66327.75
2023-02-08T04:37:00.659Z,66319.28
2023-02-08T04:39:30.655Z,66276.88
2023-02-08T04:42:02.296Z,66316.84
2023-02-08T04:44:32.810Z,66318.28
2023-02-08T04:47:04.966Z,66313.50
2023-02-08T04:49:32.072Z,66311.03
2023-02-08T04:51:59.249Z,66258.38
2023-02-08T04:54:28.185Z,66300.09
2023-02-08T04:56:55.474Z,66254.25
2023-02-08T04:59:22.657Z,66247.22
2023-02-08T05:01:49.785Z,66291.16
2023-02-08T05:04:16.902Z,66288.94
2023-02-08T05:06:46.793Z,66241.63
2023-02-08T05:09:15.239Z,66286.16
2023-02-08T05:11:42.572Z,66239.41
2023-02-08T05:14:12.455Z,66239.41
2023-02-08T05:16:39.544Z,66239.97
2023-02-08T05:19:06.692Z,66237.19
2023-02-08T05:21:33.898Z,66281.47
2023-02-08T05:24:01.033Z,66282.25
2023-02-08T05:26:33.910Z,66285.38
2023-02-08T05:29:01.021Z,66289.28
2023-02-08T05:31:30.161Z,66241.63
2023-02-08T05:33:57.532Z,66287.81
2023-02-08T05:36:24.932Z,66241.09
2023-02-08T05:38:53.545Z,66290.63
2023-02-08T05:41:20.754Z,66240.19
2023-02-08T05:43:47.923Z,66287.06
2023-02-08T05:46:15.074Z,66282.81
2023-02-08T05:48:42.508Z,66237.75
2023-02-08T05:51:10.192Z,66238.88
2023-02-08T05:53:38.953Z,66241.09
2023-02-08T05:56:06.457Z,66287.81
2023-02-08T05:58:34.215Z,66291.72
2023-02-08T06:01:01.348Z,66293.41
2023-02-08T06:03:28.479Z,66293.72
2023-02-08T06:06:00.921Z,66291.72
2023-02-08T06:08:28.645Z,66250.00
2023-02-08T06:10:55.748Z,66255.00
2023-02-08T06:13:24.286Z,66304.56
2023-02-08T06:15:51.403Z,66257.81
2023-02-08T06:18:21.584Z,66298.88
2023-02-08T06:20:48.827Z,66256.47
2023-02-08T06:23:16.459Z,66257.59
2023-02-08T06:25:43.599Z,66262.81
2023-02-08T06:28:10.937Z,66304.56
2023-02-08T06:30:38.897Z,66254.47
2023-02-08T06:33:06.251Z,66304.91
2023-02-08T06:35:33.364Z,66307.66
2023-02-08T06:38:00.850Z,66264.28
2023-02-08T06:40:28.008Z,66312.38
2023-02-08T06:42:55.190Z,66259.47
2023-02-08T06:45:22.371Z,66257.25
2023-02-08T06:47:52.569Z,66302.88
2023-02-08T06:50:19.744Z,66302.66
2023-02-08T06:52:47.821Z,66305.44
2023-02-08T06:55:15.253Z,66317.16
2023-02-08T06:57:42.411Z,66322.19
2023-02-08T07:00:10.250Z,66323.53
2023-02-08T07:02:37.464Z,66331.31
2023-02-08T07:05:05.148Z,66294.38
2023-02-08T07:07:32.493Z,66302.41
2023-02-08T07:10:02.172Z,66354.53
2023-02-08T07:12:29.395Z,66359.22
2023-02-08T07:14:56.533Z,66369.06
2023-02-08T07:17:23.609Z,66372.97
2023-02-08T07:19:51.316Z,66336.97
2023-02-08T07:22:19.205Z,66399.19
2023-02-08T07:24:47.049Z,66412.03
2023-02-08T07:27:14.113Z,66410.00
2023-02-08T07:29:47.180Z,66420.97
2023-02-08T07:32:14.761Z,66425.44
2023-02-08T07:34:43.020Z,66419.84
2023-02-08T07:37:15.653Z,66383.28
2023-02-08T07:39:43.276Z,66392.53
2023-02-08T07:42:10.686Z,66395.00
2023-02-08T07:44:50.705Z,66454.69
2023-02-08T07:47:17.801Z,66461.94
2023-02-08T07:49:44.942Z,66481.84
2023-02-08T07:52:12.018Z,66500.16
2023-02-08T07:54:39.124Z,66497.38
2023-02-08T07:57:06.225Z,66503.84
2023-02-08T07:59:33.381Z,66530.31
2023-02-08T08:02:00.533Z,66568.66
2023-02-08T08:04:27.716Z,66623.22
2023-02-08T08:06:54.794Z,66690.59
2023-02-08T08:09:22.075Z,66744.88
2023-02-08T08:11:49.167Z,66790.00
2023-02-08T08:14:16.274Z,66794.91
2023-02-08T08:16:43.831Z,66860.47
2023-02-08T08:19:11.011Z,66877.63
2023-02-08T08:21:38.180Z,66868.09
2023-02-08T08:24:05.512Z,66927.19
2023-02-08T08:26:32.660Z,66954.66
2023-02-08T08:28:59.853Z,66942.88
2023-02-08T08:31:27.093Z,66921.59
2023-02-08T08:33:55.906Z,66959.72
2023-02-08T08:36:23.073Z,66964.41
2023-02-08T08:38:51.740Z,67022.88
2023-02-08T08:41:19.222Z,67076.44
2023-02-08T08:43:46.408Z,67104.84
2023-02-08T08:46:13.728Z,67069.69
2023-02-08T08:48:41.025Z,67079.59
2023-02-08T08:51:08.251Z,67038.03
2023-02-08T08:53:37.059Z,67032.84
2023-02-08T08:56:05.351Z,67042.75
2023-02-08T08:58:32.946Z,67013.91
2023-02-08T09:01:03.337Z,67014.25
2023-02-08T09:03:34.728Z,67018.53
2023-02-08T09:06:01.906Z,67005.28
2023-02-08T09:08:29.040Z,66995.94
2023-02-08T09:10:56.242Z,66985.63
2023-02-08T09:13:29.179Z,66969.38
2023-02-08T09:15:56.315Z,66947.16
2023-02-08T09:18:23.445Z,66953.09
2023-02-08T09:20:52.510Z,66977.09
2023-02-08T09:23:21.881Z,66970.91
2023-02-08T09:25:50.114Z,66974.09
2023-02-08T09:28:17.419Z,66964.53
2023-02-08T09:30:45.829Z,66997.44
2023-02-08T09:33:13.103Z,66989.78
2023-02-08T09:35:40.433Z,66974.28
2023-02-08T09:38:07.635Z,67003.03
2023-02-08T09:40:53.180Z,66983.25
2023-02-08T09:43:52.553Z,66999.53
2023-02-08T09:46:26.470Z,67021.97
2023-02-08T09:48:58.977Z,67024.56
2023-02-08T09:51:44.820Z,67047.81
2023-02-08T09:54:24.506Z,67097.53
2023-02-08T09:56:52.605Z,67111.66
2023-02-08T09:59:24.327Z,67091.38
2023-02-08T10:02:17.201Z,67079.03
2023-02-08T10:05:22.758Z,67080.91
2023-02-08T10:07:50.050Z,67115.31
2023-02-08T10:10:30.393Z,67106.19
2023-02-08T10:13:13.849Z,67114.75
2023-02-08T10:15:53.504Z,67066.66
2023-02-08T10:18:36.958Z,67085.63
2023-02-08T10:21:11.557Z,67080.69
2023-02-08T10:24:07.885Z,67094.75
2023-02-08T10:26:45.874Z,67101.47
2023-02-08T10:29:22.570Z,67089.69
2023-02-08T10:32:14.605Z,67069.69
2023-02-08T10:34:54.690Z,67096.22
2023-02-08T10:37:31.552Z,67087.44
2023-02-08T10:40:14.776Z,67081.28
2023-02-08T10:42:44.083Z,67052.28
2023-02-08T10:45:32.418Z,67032.78
2023-02-08T10:48:10.556Z,67024.78
2023-02-08T10:50:41.531Z,67061.59
2023-02-08T10:53:20.023Z,67080.50
2023-02-08T10:55:48.864Z,67074.75
2023-02-08T10:58:19.979Z,67053.53
2023-02-08T11:00:52.557Z,67085.56
2023-02-08T11:03:25.452Z,67046.66
2023-02-08T11:05:53.651Z,67115.53
2023-02-08T11:08:27.778Z,67147.88
2023-02-08T11:10:59.984Z,67103.72
2023-02-08T11:13:51.452Z,67120.91
2023-02-08T11:16:28.167Z,67120.78
2023-02-08T11:18:58.862Z,67141.56
2023-02-08T11:21:29.868Z,67171.13
2023-02-08T11:23:58.028Z,67163.81
2023-02-08T11:26:32.743Z,67138.34
2023-02-08T11:29:21.583Z,67202.41
2023-02-08T11:31:54.689Z,67166.44
2023-02-08T11:34:39.288Z,67176.19
2023-02-08T11:37:28.936Z,67169.44
2023-02-08T11:39:58.664Z,67175.97
2023-02-08T11:42:34.992Z,67196.41
2023-02-08T11:45:02.592Z,67134.22
2023-02-08T11:47:33.132Z,67190.03
2023-02-08T11:50:03.907Z,67183.13
2023-02-08T11:52:37.373Z,67198.47
2023-02-08T11:55:16.705Z,67203.16
2023-02-08T11:58:12.724Z,67231.03
2023-02-08T12:00:58.115Z,67211.78
2023-02-08T12:03:33.018Z,67187.78
2023-02-08T12:06:40.735Z,67212.16
2023-02-08T12:09:23.479Z,67238.94
2023-02-08T12:12:03.675Z,67202.94
2023-02-08T12:14:43.262Z,67172.47
2023-02-08T12:17:16.144Z,67173.94
2023-02-08T12:20:05.108Z,67159.91
2023-02-08T12:22:43.957Z,67163.47
2023-02-08T12:25:32.737Z,67181.94
2023-02-08T12:28:24.433Z,67209.13
2023-02-08T12:31:13.134Z,67174.16
2023-02-08T12:34:05.783Z,67164.38
2023-02-08T12:37:36.725Z,67158.75
2023-02-08T12:40:41.121Z,67172.41
2023-02-08T12:43:30.171Z,67160.03
2023-02-08T12:46:12.310Z,67160.66
2023-02-08T12:48:50.779Z,67145.50
2023-02-08T12:51:42.687Z,67136.09
2023-02-08T12:54:18.401Z,67133.69
2023-02-08T12:57:02.141Z,67136.50
2023-02-08T12:59:40.486Z,67129.75
2023-02-08T13:02:17.901Z,67121.91
2023-02-08T13:04:49.843Z,67132.72
2023-02-08T13:07:26.208Z,67148.44
2023-02-08T13:10:15.058Z,67158.97
2023-02-08T13:12:52.964Z,67149.22
2023-02-08T13:15:31.408Z,67145.84
2023-02-08T13:18:04.107Z,67150.34
2023-02-08T13:20:48.895Z,67146.41
2023-02-08T13:23:43.496Z,67144.16
2023-02-08T13:26:26.597Z,67130.47
2023-02-08T13:29:01.259Z,67110.66
2023-02-08T13:31:39.991Z,67133.69
2023-02-08T13:34:19.032Z,67127.50
2023-02-08T13:36:55.951Z,67124.50
2023-02-08T13:39:34.048Z,67120.00
2023-02-08T13:42:18.207Z,67111.59
2023-02-08T13:44:49.910Z,67121.91
2023-02-08T13:47:30.284Z,67111.94
2023-02-08T13:50:19.086Z,67106.31
2023-02-08T13:52:49.066Z,67111.03
2023-02-08T13:55:39.158Z,67108.22
2023-02-08T13:58:15.416Z,67114.75
2023-02-08T14:01:17.833Z,67110.66
2023-02-08T14:04:07.847Z,67113.06
2023-02-08T14:06:41.610Z,67114.19
2023-02-08T14:09:17.250Z,67098.13
2023-02-08T14:11:54.207Z,67087.44
2023-02-08T14:15:04.282Z,67097.19
2023-02-08T14:17:31.671Z,67112.16
2023-02-08T14:20:04.222Z,67106.72
2023-02-08T14:22:54.279Z,67108.22
2023-02-08T14:25:25.055Z,67113.41
2023-02-08T14:28:05.349Z,67112.28
2023-02-08T14:30:35.386Z,67105.97
2023-02-08T14:33:05.192Z,67091.72
2023-02-08T14:35:36.808Z,67103.50
2023-02-08T14:38:19.327Z,67101.47
2023-02-08T14:40:54.503Z,67105.75
2023-02-08T14:43:36.666Z,67092.34
2023-02-08T14:46:46.284Z,67090.03
2023-02-08T14:49:19.235Z,67082.03
2023-02-08T14:51:54.220Z,67091.56
2023-02-08T14:54:27.789Z,67078.88
2023-02-08T14:57:03.195Z,67075.66
2023-02-08T14:59:34.775Z,67069.69
2023-02-08T15:02:15.962Z,67063.09
2023-02-08T15:04:45.353Z,67073.41
2023-02-08T15:07:40.413Z,67074.88
2023-02-08T15:10:17.241Z,67057.69
2023-02-08T15:12:48.158Z,67060.28
2023-02-08T15:15:44.104Z,67047.22
2023-02-08T15:18:27.906Z,67047.03
2023-02-08T15:21:16.914Z,67043.44
2023-02-08T15:24:00.381Z,67030.53
2023-02-08T15:26:28.463Z,67020.88
2023-02-08T15:28:56.038Z,66972.63
2023-02-08T15:31:33.754Z,67019.88
2023-02-08T15:34:02.416Z,66977.69
2023-02-08T15:36:32.344Z,67018.59
2023-02-08T15:39:03.871Z,67002.13
2023-02-08T15:41:34.313Z,67003.81
2023-02-08T15:44:15.043Z,66996.50
2023-02-08T15:46:43.958Z,66990.34
2023-02-08T15:49:15.362Z,66988.09
2023-02-08T15:51:45.471Z,66991.81
2023-02-08T15:54:18.238Z,66975.19
2023-02-08T15:56:56.762Z,66972.16
2023-02-08T15:59:33.292Z,66962.88
2023-02-08T16:02:23.421Z,66951.28
2023-02-08T16:04:51.186Z,66910.41
2023-02-08T16:07:28.900Z,66943.78
2023-02-08T16:09:57.200Z,66943.25
2023-02-08T16:12:26.377Z,66941.13
2023-02-08T16:14:56.763Z,66932.38
2023-02-08T16:17:48.758Z,66878.44
2023-02-08T16:20:31.288Z,66919.47
2023-02-08T16:23:24.028Z,66911.28
2023-02-08T16:25:51.423Z,66913.84
2023-02-08T16:28:24.315Z,66911.06
2023-02-08T16:30:51.936Z,66907.13
2023-02-08T16:33:19.937Z,66899.84
2023-02-08T16:35:47.366Z,66896.00
2023-02-08T16:38:24.176Z,66893.66
2023-02-08T16:40:54.952Z,66894.09
2023-02-08T16:43:28.449Z,66897.25
2023-02-08T16:46:10.672Z,66893.66
2023-02-08T16:48:43.243Z,66892.41
2023-02-08T16:51:21.871Z,66891.66
2023-02-08T16:53:51.312Z,66886.03
2023-02-08T16:56:18.607Z,66882.31
2023-02-08T16:58:45.754Z,66883.81
2023-02-08T17:01:14.187Z,66837.53
2023-02-08T17:03:42.269Z,66876.53
2023-02-08T17:06:21.840Z,66879.66
2023-02-08T17:08:49.206Z,66871.25
2023-02-08T17:11:16.463Z,66821.31
2023-02-08T17:13:48.753Z,66872.94
2023-02-08T17:16:22.376Z,66860.25
2023-02-08T17:18:50.443Z,66857.47
2023-02-08T17:21:17.933Z,66867.34
2023-02-08T17:23:45.854Z,66858.56
2023-02-08T17:26:23.070Z,66862.84
2023-02-08T17:28:50.305Z,66858.56
2023-02-08T17:31:17.533Z,66853.53
2023-02-08T17:33:44.979Z,66859.69
2023-02-08T17:36:14.865Z,66866.22
2023-02-08T17:38:44.094Z,66869.22
2023-02-08T17:41:19.693Z,66864.53
2023-02-08T17:43:52.054Z,66865.84
2023-02-08T17:46:28.294Z,66859.69
2023-02-08T17:48:55.437Z,66866.75
2023-02-08T17:51:24.500Z,66854.66
2023-02-08T17:53:51.856Z,66846.03
2023-02-08T17:56:26.316Z,66837.84
2023-02-08T17:58:55.186Z,66795.22
2023-02-08T18:01:24.735Z,66847.38
2023-02-08T18:03:53.370Z,66797.78
2023-02-08T18:06:21.561Z,66836.72
2023-02-08T18:08:48.752Z,66832.56
2023-02-08T18:11:20.240Z,66788.47
2023-02-08T18:13:49.343Z,66831.69
2023-02-08T18:16:19.781Z,66779.88
2023-02-08T18:18:46.960Z,66821.94
2023-02-08T18:21:20.560Z,66825.53
2023-02-08T18:23:52.075Z,66824.19
2023-02-08T18:26:24.008Z,66768.88
2023-02-08T18:28:51.774Z,66810.97
2023-02-08T18:31:35.835Z,66814.09
2023-02-08T18:34:03.710Z,66811.88
2023-02-08T18:36:31.122Z,66809.06
2023-02-08T18:39:01.204Z,66815.78
2023-02-08T18:41:30.388Z,66811.28
2023-02-08T18:43:58.446Z,66810.75
2023-02-08T18:46:28.192Z,66803.34
2023-02-08T18:48:55.767Z,66800.53
2023-02-08T18:51:24.157Z,66801.78
2023-02-08T18:53:56.028Z,66798.97
2023-02-08T18:56:28.466Z,66797.28
2023-02-08T18:58:58.966Z,66793.38
2023-02-08T19:01:26.491Z,66742.94
2023-02-08T19:04:00.005Z,66775.91
2023-02-08T19:06:33.077Z,66774.34
2023-02-08T19:09:05.059Z,66764.47
2023-02-08T19:11:37.825Z,66771.19
2023-02-08T19:14:11.440Z,66765.03
2023-02-08T19:16:39.116Z,66772.66
2023-02-08T19:19:06.929Z,66781.06
2023-02-08T19:21:34.698Z,66782.06
2023-02-08T19:24:03.116Z,66798.97
2023-02-08T19:26:37.119Z,66798.06
2023-02-08T19:29:06.760Z,66803.44
2023-02-08T19:31:35.162Z,66798.28
2023-02-08T19:34:03.660Z,66805.13
2023-02-08T19:36:41.205Z,66795.50
2023-02-08T19:39:08.325Z,66796.94
2023-02-08T19:41:38.197Z,66754.69
2023-02-08T19:44:08.160Z,66794.38
2023-02-08T19:46:38.833Z,66793.03
2023-02-08T19:49:07.317Z,66792.81
2023-02-08T19:51:37.021Z,66786.88
2023-02-08T19:54:08.460Z,66736.97
2023-02-08T19:56:36.138Z,66787.22
2023-02-08T19:59:05.150Z,66778.13
2023-02-08T20:01:35.704Z,66778.69
2023-02-08T20:04:06.560Z,66788.31
2023-02-08T20:06:39.075Z,66738.47
2023-02-08T20:09:09.835Z,66783.84
2023-02-08T20:11:54.975Z,66784.41
2023-02-08T20:14:29.284Z,66792.25
2023-02-08T20:16:57.025Z,66798.44
2023-02-08T20:19:24.510Z,66793.59
2023-02-08T20:21:52.084Z,66805.13
2023-02-08T20:24:19.516Z,66798.44
2023-02-08T20:26:47.904Z,66800.66
2023-02-08T20:29:15.757Z,66802.91
2023-02-08T20:31:43.768Z,66799.53
2023-02-08T20:34:14.013Z,66796.75
2023-02-08T20:36:45.093Z,66799.75
2023-02-08T20:39:20.806Z,66796.03
2023-02-08T20:41:48.355Z,66759.16
2023-02-08T20:44:17.827Z,66811.28
2023-02-08T20:46:46.510Z,66812.44
2023-02-08T20:49:21.408Z,66821.03
2023-02-08T20:51:52.450Z,66822.72
2023-02-08T20:54:19.936Z,66820.25
2023-02-08T20:56:53.619Z,66823.84
2023-02-08T20:59:21.621Z,66828.09
2023-02-08T21:01:49.084Z,66826.41
2023-02-08T21:04:17.958Z,66849.41
2023-02-08T21:06:46.296Z,66840.44
2023-02-08T21:09:16.479Z,66843.78
2023-02-08T21:11:44.953Z,66838.41
2023-02-08T21:14:18.547Z,66833.94
2023-02-08T21:16:48.549Z,66841.78
2023-02-08T21:19:17.300Z,66847.50
2023-02-08T21:21:44.503Z,66831.91
2023-02-08T21:24:11.622Z,66835.59
2023-02-08T21:26:38.825Z,66786.25
2023-02-08T21:29:06.599Z,66836.53
2023-02-08T21:31:34.319Z,66841.19
2023-02-08T21:34:04.270Z,66844.00
2023-02-08T21:36:32.183Z,66840.88
2023-02-08T21:38:59.536Z,66859.69
2023-02-08T21:41:32.197Z,66861.72
2023-02-08T21:44:02.296Z,66862.84
2023-02-08T21:46:30.993Z,66862.16
2023-02-08T21:49:16.666Z,66865.31
2023-02-08T21:52:02.420Z,66878.88
2023-02-08T21:54:41.809Z,66860.25
2023-02-08T21:57:12.404Z,66876.88
2023-02-08T21:59:40.020Z,66873.50
2023-02-08T22:02:14.691Z,66878.56
2023-02-08T22:05:01.060Z,66822.09
2023-02-08T22:07:28.873Z,66878.56
2023-02-08T22:09:56.162Z,66872.38
2023-02-08T22:12:23.855Z,66821.31
2023-02-08T22:14:50.973Z,66877.06
2023-02-08T22:17:18.032Z,66879.31
2023-02-08T22:19:45.143Z,66868.69
2023-02-08T22:22:12.415Z,66869.22
2023-02-08T22:24:40.024Z,66859.34
2023-02-08T22:27:07.094Z,66859.69
2023-02-08T22:29:34.300Z,66863.97
2023-02-08T22:32:01.695Z,66817.38
2023-02-08T22:34:29.377Z,66859.50
2023-02-08T22:36:56.682Z,66862.28
2023-02-08T22:39:24.054Z,66859.50
2023-02-08T22:41:51.168Z,66846.47
2023-02-08T22:44:18.280Z,66858.38
2023-02-08T22:46:45.436Z,66855.22
2023-02-08T22:49:12.601Z,66855.56
2023-02-08T22:51:39.697Z,66849.63
2023-02-08T22:54:06.848Z,66804.72
2023-02-08T22:56:34.017Z,66850.53
2023-02-08T22:59:01.249Z,66847.38
2023-02-08T23:01:28.825Z,66852.75
2023-02-08T23:03:56.043Z,66847.38
2023-02-08T23:06:24.517Z,66854.44
2023-02-08T23:08:52.690Z,66849.97
2023-02-08T23:11:20.923Z,66849.97
2023-02-08T23:13:51.328Z,66844.78
2023-02-08T23:16:19.139Z,66842.88
2023-02-08T23:18:46.637Z,66837.63
2023-02-08T23:21:16.992Z,66837.63
2023-02-08T23:23:47.696Z,66842.69
2023-02-08T23:26:18.172Z,66851.84
2023-02-08T23:28:45.926Z,66840.44
2023-02-08T23:31:13.906Z,66832.81
2023-02-08T23:33:41.455Z,66822.72
2023-02-08T23:36:20.221Z,66815.44
2023-02-08T23:38:47.965Z,66816.91
2023-02-08T23:41:16.388Z,66817.47
2023-02-08T23:43:44.213Z,66818.03
2023-02-08T23:46:16.443Z,66816.00
2023-02-08T23:48:44.074Z,66811.28
2023-02-08T23:51:11.205Z,66767.56
2023-02-08T23:53:38.342Z,66807.03
2023-02-08T23:56:05.692Z,66805.91
2023-02-08T23:58:32.983Z,66792.13
